sensor_id;sensor_type;location;lat;lon;timestamp;temperature;humidity
64062;DHT22;50308;47.438;-1.528;2023-01-06T00:01:53;13.90;91.30
64062;DHT22;50308;47.438;-1.528;2023-01-06T00:04:19;13.90;91.30
64062;DHT22;50308;47.438;-1.528;2023-01-06T00:06:45;13.90;91.20
64062;DHT22;50308;47.438;-1.528;2023-01-06T00:09:10;13.90;91.20
64062;DHT22;50308;47.438;-1.528;2023-01-06T00:11:36;13.90;91.20
64062;DHT22;50308;47.438;-1.528;2023-01-06T00:14:02;13.90;91.20
64062;DHT22;50308;47.438;-1.528;2023-01-06T00:16:28;13.90;91.20
64062;DHT22;50308;47.438;-1.528;2023-01-06T00:18:54;13.90;91.70
64062;DHT22;50308;47.438;-1.528;2023-01-06T00:21:20;13.90;91.10
64062;DHT22;50308;47.438;-1.528;2023-01-06T00:23:46;13.90;91.20
64062;DHT22;50308;47.438;-1.528;2023-01-06T00:26:11;13.90;91.20
64062;DHT22;50308;47.438;-1.528;2023-01-06T00:28:37;13.90;91.20
64062;DHT22;50308;47.438;-1.528;2023-01-06T00:31:11;13.90;91.20
64062;DHT22;50308;47.438;-1.528;2023-01-06T00:33:37;13.90;91.20
64062;DHT22;50308;47.438;-1.528;2023-01-06T00:36:03;14.00;91.30
64062;DHT22;50308;47.438;-1.528;2023-01-06T00:38:29;13.90;91.10
64062;DHT22;50308;47.438;-1.528;2023-01-06T00:40:55;13.90;91.10
64062;DHT22;50308;47.438;-1.528;2023-01-06T00:43:21;13.90;91.10
64062;DHT22;50308;47.438;-1.528;2023-01-06T00:45:46;13.90;91.10
64062;DHT22;50308;47.438;-1.528;2023-01-06T00:48:12;14.00;91.20
64062;DHT22;50308;47.438;-1.528;2023-01-06T00:50:37;14.00;91.20
64062;DHT22;50308;47.438;-1.528;2023-01-06T00:53:03;13.90;91.10
64062;DHT22;50308;47.438;-1.528;2023-01-06T00:55:28;14.00;91.00
64062;DHT22;50308;47.438;-1.528;2023-01-06T00:57:54;14.00;91.10
64062;DHT22;50308;47.438;-1.528;2023-01-06T01:00:20;14.00;91.00
64062;DHT22;50308;47.438;-1.528;2023-01-06T01:02:45;14.00;91.10
64062;DHT22;50308;47.438;-1.528;2023-01-06T01:05:11;14.00;90.90
64062;DHT22;50308;47.438;-1.528;2023-01-06T01:07:37;13.90;91.00
64062;DHT22;50308;47.438;-1.528;2023-01-06T01:10:02;14.00;91.10
64062;DHT22;50308;47.438;-1.528;2023-01-06T01:12:28;14.00;91.50
64062;DHT22;50308;47.438;-1.528;2023-01-06T01:14:54;13.90;91.10
64062;DHT22;50308;47.438;-1.528;2023-01-06T01:19:45;14.00;91.20
64062;DHT22;50308;47.438;-1.528;2023-01-06T01:22:11;14.00;91.20
64062;DHT22;50308;47.438;-1.528;2023-01-06T01:24:37;14.00;91.20
64062;DHT22;50308;47.438;-1.528;2023-01-06T01:27:03;14.00;91.00
64062;DHT22;50308;47.438;-1.528;2023-01-06T01:29:28;14.00;91.10
64062;DHT22;50308;47.438;-1.528;2023-01-06T01:31:54;14.00;91.20
64062;DHT22;50308;47.438;-1.528;2023-01-06T01:34:20;14.00;91.20
64062;DHT22;50308;47.438;-1.528;2023-01-06T01:36:46;14.00;91.10
64062;DHT22;50308;47.438;-1.528;2023-01-06T01:39:13;14.00;91.20
64062;DHT22;50308;47.438;-1.528;2023-01-06T01:41:39;14.00;91.20
64062;DHT22;50308;47.438;-1.528;2023-01-06T01:46:49;14.00;91.10
64062;DHT22;50308;47.438;-1.528;2023-01-06T01:49:15;14.00;91.10
64062;DHT22;50308;47.438;-1.528;2023-01-06T01:51:42;14.00;91.10
64062;DHT22;50308;47.438;-1.528;2023-01-06T01:54:10;14.00;91.10
64062;DHT22;50308;47.438;-1.528;2023-01-06T01:56:37;14.00;91.10
64062;DHT22;50308;47.438;-1.528;2023-01-06T01:59:16;14.00;91.10
64062;DHT22;50308;47.438;-1.528;2023-01-06T02:01:43;14.00;91.10
64062;DHT22;50308;47.438;-1.528;2023-01-06T02:04:09;14.00;91.10
64062;DHT22;50308;47.438;-1.528;2023-01-06T02:06:35;14.00;91.10
64062;DHT22;50308;47.438;-1.528;2023-01-06T02:11:45;14.00;91.10
64062;DHT22;50308;47.438;-1.528;2023-01-06T02:14:16;14.00;91.10
64062;DHT22;50308;47.438;-1.528;2023-01-06T02:19:18;14.00;91.10
64062;DHT22;50308;47.438;-1.528;2023-01-06T02:22:15;14.00;91.10
64062;DHT22;50308;47.438;-1.528;2023-01-06T02:32:18;14.00;91.10
64062;DHT22;50308;47.438;-1.528;2023-01-06T02:42:34;14.10;91.00
64062;DHT22;50308;47.438;-1.528;2023-01-06T02:45:27;14.10;91.00
64062;DHT22;50308;47.438;-1.528;2023-01-06T02:48:07;14.10;91.00
64062;DHT22;50308;47.438;-1.528;2023-01-06T02:50:38;14.10;91.00
64062;DHT22;50308;47.438;-1.528;2023-01-06T02:55:35;14.10;91.00
64062;DHT22;50308;47.438;-1.528;2023-01-06T03:00:36;14.00;91.30
64062;DHT22;50308;47.438;-1.528;2023-01-06T03:03:04;14.00;91.30
64062;DHT22;50308;47.438;-1.528;2023-01-06T03:05:31;14.00;91.50
64062;DHT22;50308;47.438;-1.528;2023-01-06T03:07:57;14.00;91.60
64062;DHT22;50308;47.438;-1.528;2023-01-06T03:10:23;14.00;91.60
64062;DHT22;50308;47.438;-1.528;2023-01-06T03:13:13;14.00;91.40
64062;DHT22;50308;47.438;-1.528;2023-01-06T03:15:36;14.00;91.70
64062;DHT22;50308;47.438;-1.528;2023-01-06T03:18:02;14.00;91.50
64062;DHT22;50308;47.438;-1.528;2023-01-06T03:20:28;13.90;91.40
64062;DHT22;50308;47.438;-1.528;2023-01-06T03:22:53;14.00;91.30
64062;DHT22;50308;47.438;-1.528;2023-01-06T03:25:19;13.90;91.40
64062;DHT22;50308;47.438;-1.528;2023-01-06T03:27:45;14.00;91.70
64062;DHT22;50308;47.438;-1.528;2023-01-06T03:30:10;13.90;91.50
64062;DHT22;50308;47.438;-1.528;2023-01-06T03:32:39;13.90;91.40
64062;DHT22;50308;47.438;-1.528;2023-01-06T03:35:27;14.00;91.80
64062;DHT22;50308;47.438;-1.528;2023-01-06T03:41:14;14.00;91.30
64062;DHT22;50308;47.438;-1.528;2023-01-06T03:50:54;14.00;91.30
64062;DHT22;50308;47.438;-1.528;2023-01-06T03:58:40;14.00;91.30
64062;DHT22;50308;47.438;-1.528;2023-01-06T04:01:05;14.00;91.30
64062;DHT22;50308;47.438;-1.528;2023-01-06T04:03:32;14.00;91.30
64062;DHT22;50308;47.438;-1.528;2023-01-06T04:05:58;14.00;91.40
64062;DHT22;50308;47.438;-1.528;2023-01-06T04:08:24;14.10;91.30
64062;DHT22;50308;47.438;-1.528;2023-01-06T04:10:50;14.10;91.30
64062;DHT22;50308;47.438;-1.528;2023-01-06T04:13:15;14.10;91.30
64062;DHT22;50308;47.438;-1.528;2023-01-06T04:15:41;14.10;91.20
64062;DHT22;50308;47.438;-1.528;2023-01-06T04:18:06;14.10;91.20
64062;DHT22;50308;47.438;-1.528;2023-01-06T04:20:32;14.10;91.20
64062;DHT22;50308;47.438;-1.528;2023-01-06T04:22:57;14.10;91.20
64062;DHT22;50308;47.438;-1.528;2023-01-06T04:25:23;14.10;91.20
64062;DHT22;50308;47.438;-1.528;2023-01-06T04:27:49;14.10;91.20
64062;DHT22;50308;47.438;-1.528;2023-01-06T04:30:15;14.10;91.20
64062;DHT22;50308;47.438;-1.528;2023-01-06T04:32:41;14.10;91.20
64062;DHT22;50308;47.438;-1.528;2023-01-06T04:35:06;14.10;91.10
64062;DHT22;50308;47.438;-1.528;2023-01-06T04:37:32;14.10;91.10
64062;DHT22;50308;47.438;-1.528;2023-01-06T04:39:58;14.10;91.20
64062;DHT22;50308;47.438;-1.528;2023-01-06T04:42:24;14.10;91.20
64062;DHT22;50308;47.438;-1.528;2023-01-06T04:44:49;14.10;91.30
64062;DHT22;50308;47.438;-1.528;2023-01-06T04:47:15;14.00;91.20
64062;DHT22;50308;47.438;-1.528;2023-01-06T04:49:40;14.10;91.20
64062;DHT22;50308;47.438;-1.528;2023-01-06T04:52:06;14.10;91.20
64062;DHT22;50308;47.438;-1.528;2023-01-06T04:54:33;14.10;91.10
64062;DHT22;50308;47.438;-1.528;2023-01-06T04:56:58;14.10;91.20
64062;DHT22;50308;47.438;-1.528;2023-01-06T04:59:24;14.10;91.20
64062;DHT22;50308;47.438;-1.528;2023-01-06T05:01:50;14.10;91.20
64062;DHT22;50308;47.438;-1.528;2023-01-06T05:04:15;14.00;91.20
64062;DHT22;50308;47.438;-1.528;2023-01-06T05:06:41;14.10;91.20
64062;DHT22;50308;47.438;-1.528;2023-01-06T05:09:06;14.10;91.10
64062;DHT22;50308;47.438;-1.528;2023-01-06T05:11:32;14.10;91.10
64062;DHT22;50308;47.438;-1.528;2023-01-06T05:13:58;14.10;91.10
64062;DHT22;50308;47.438;-1.528;2023-01-06T05:16:24;14.10;91.10
64062;DHT22;50308;47.438;-1.528;2023-01-06T05:18:50;14.00;91.10
64062;DHT22;50308;47.438;-1.528;2023-01-06T05:21:16;14.10;91.10
64062;DHT22;50308;47.438;-1.528;2023-01-06T05:23:41;14.10;91.10
64062;DHT22;50308;47.438;-1.528;2023-01-06T05:26:08;14.00;91.10
64062;DHT22;50308;47.438;-1.528;2023-01-06T05:28:33;14.10;91.10
64062;DHT22;50308;47.438;-1.528;2023-01-06T05:31:03;14.00;91.10
64062;DHT22;50308;47.438;-1.528;2023-01-06T05:33:29;14.00;91.10
64062;DHT22;50308;47.438;-1.528;2023-01-06T05:36:02;14.00;91.10
64062;DHT22;50308;47.438;-1.528;2023-01-06T05:38:28;14.00;91.10
64062;DHT22;50308;47.438;-1.528;2023-01-06T05:40:53;14.00;91.00
64062;DHT22;50308;47.438;-1.528;2023-01-06T05:43:21;14.00;91.10
64062;DHT22;50308;47.438;-1.528;2023-01-06T05:45:46;14.00;91.10
64062;DHT22;50308;47.438;-1.528;2023-01-06T05:48:12;14.10;91.10
64062;DHT22;50308;47.438;-1.528;2023-01-06T05:50:38;14.10;91.10
64062;DHT22;50308;47.438;-1.528;2023-01-06T05:53:03;14.10;91.10
64062;DHT22;50308;47.438;-1.528;2023-01-06T05:55:29;14.10;91.10
64062;DHT22;50308;47.438;-1.528;2023-01-06T05:57:54;14.10;91.10
64062;DHT22;50308;47.438;-1.528;2023-01-06T06:00:20;14.10;91.10
64062;DHT22;50308;47.438;-1.528;2023-01-06T06:02:45;14.10;91.60
64062;DHT22;50308;47.438;-1.528;2023-01-06T06:05:11;14.10;91.10
64062;DHT22;50308;47.438;-1.528;2023-01-06T06:07:36;14.10;91.10
64062;DHT22;50308;47.438;-1.528;2023-01-06T06:10:02;14.10;91.10
64062;DHT22;50308;47.438;-1.528;2023-01-06T06:12:28;14.10;91.10
64062;DHT22;50308;47.438;-1.528;2023-01-06T06:14:54;14.10;91.10
64062;DHT22;50308;47.438;-1.528;2023-01-06T06:17:20;14.10;91.10
64062;DHT22;50308;47.438;-1.528;2023-01-06T06:19:45;14.10;91.10
64062;DHT22;50308;47.438;-1.528;2023-01-06T06:22:11;14.10;91.10
64062;DHT22;50308;47.438;-1.528;2023-01-06T06:24:36;14.00;91.60
64062;DHT22;50308;47.438;-1.528;2023-01-06T06:27:02;14.00;91.10
64062;DHT22;50308;47.438;-1.528;2023-01-06T06:29:27;14.00;91.20
64062;DHT22;50308;47.438;-1.528;2023-01-06T06:31:53;14.00;91.10
64062;DHT22;50308;47.438;-1.528;2023-01-06T06:34:19;14.00;91.20
64062;DHT22;50308;47.438;-1.528;2023-01-06T06:36:44;14.00;91.20
64062;DHT22;50308;47.438;-1.528;2023-01-06T06:39:10;14.00;91.20
64062;DHT22;50308;47.438;-1.528;2023-01-06T06:41:35;14.00;91.30
64062;DHT22;50308;47.438;-1.528;2023-01-06T06:44:01;14.00;91.20
64062;DHT22;50308;47.438;-1.528;2023-01-06T06:46:28;14.00;91.20
64062;DHT22;50308;47.438;-1.528;2023-01-06T06:48:54;14.00;91.20
64062;DHT22;50308;47.438;-1.528;2023-01-06T06:51:20;14.00;91.20
64062;DHT22;50308;47.438;-1.528;2023-01-06T06:53:46;14.00;91.30
64062;DHT22;50308;47.438;-1.528;2023-01-06T06:56:12;14.00;91.20
64062;DHT22;50308;47.438;-1.528;2023-01-06T06:58:38;14.00;91.20
64062;DHT22;50308;47.438;-1.528;2023-01-06T07:01:11;14.10;91.30
64062;DHT22;50308;47.438;-1.528;2023-01-06T07:03:37;14.00;91.20
64062;DHT22;50308;47.438;-1.528;2023-01-06T07:06:04;14.10;91.20
64062;DHT22;50308;47.438;-1.528;2023-01-06T07:08:30;14.00;91.20
64062;DHT22;50308;47.438;-1.528;2023-01-06T07:10:59;14.00;91.20
64062;DHT22;50308;47.438;-1.528;2023-01-06T07:13:24;14.10;91.20
64062;DHT22;50308;47.438;-1.528;2023-01-06T07:15:50;14.10;91.20
64062;DHT22;50308;47.438;-1.528;2023-01-06T07:18:15;14.10;91.20
64062;DHT22;50308;47.438;-1.528;2023-01-06T07:20:45;14.10;91.20
64062;DHT22;50308;47.438;-1.528;2023-01-06T07:23:11;14.10;91.20
64062;DHT22;50308;47.438;-1.528;2023-01-06T07:25:36;14.10;91.10
64062;DHT22;50308;47.438;-1.528;2023-01-06T07:28:02;14.10;91.20
64062;DHT22;50308;47.438;-1.528;2023-01-06T07:30:31;14.10;91.20
64062;DHT22;50308;47.438;-1.528;2023-01-06T07:32:57;14.10;91.10
64062;DHT22;50308;47.438;-1.528;2023-01-06T07:35:23;14.10;91.10
64062;DHT22;50308;47.438;-1.528;2023-01-06T07:37:48;14.10;91.20
64062;DHT22;50308;47.438;-1.528;2023-01-06T07:40:14;14.10;91.10
64062;DHT22;50308;47.438;-1.528;2023-01-06T07:42:42;14.10;91.10
64062;DHT22;50308;47.438;-1.528;2023-01-06T07:45:07;14.10;91.10
64062;DHT22;50308;47.438;-1.528;2023-01-06T07:47:33;14.10;91.10
64062;DHT22;50308;47.438;-1.528;2023-01-06T07:49:59;14.10;91.10
64062;DHT22;50308;47.438;-1.528;2023-01-06T07:52:24;14.10;91.10
64062;DHT22;50308;47.438;-1.528;2023-01-06T07:54:50;14.10;91.10
64062;DHT22;50308;47.438;-1.528;2023-01-06T07:57:15;14.10;91.10
64062;DHT22;50308;47.438;-1.528;2023-01-06T07:59:41;14.10;91.00
64062;DHT22;50308;47.438;-1.528;2023-01-06T08:02:08;14.10;91.00
64062;DHT22;50308;47.438;-1.528;2023-01-06T08:04:34;14.10;91.00
64062;DHT22;50308;47.438;-1.528;2023-01-06T08:07:00;14.10;91.00
64062;DHT22;50308;47.438;-1.528;2023-01-06T08:09:25;14.10;91.00
64062;DHT22;50308;47.438;-1.528;2023-01-06T08:11:51;14.10;91.00
64062;DHT22;50308;47.438;-1.528;2023-01-06T08:14:16;14.10;91.00
64062;DHT22;50308;47.438;-1.528;2023-01-06T08:16:42;14.10;91.00
64062;DHT22;50308;47.438;-1.528;2023-01-06T08:19:07;14.10;91.00
64062;DHT22;50308;47.438;-1.528;2023-01-06T08:21:33;14.10;91.00
64062;DHT22;50308;47.438;-1.528;2023-01-06T08:23:58;14.10;91.00
64062;DHT22;50308;47.438;-1.528;2023-01-06T08:26:24;14.10;91.00
64062;DHT22;50308;47.438;-1.528;2023-01-06T08:28:50;14.10;91.00
64062;DHT22;50308;47.438;-1.528;2023-01-06T08:31:17;14.10;91.00
64062;DHT22;50308;47.438;-1.528;2023-01-06T08:33:43;14.10;91.00
64062;DHT22;50308;47.438;-1.528;2023-01-06T08:36:11;14.10;91.40
64062;DHT22;50308;47.438;-1.528;2023-01-06T08:38:37;14.10;91.00
64062;DHT22;50308;47.438;-1.528;2023-01-06T08:41:03;14.10;90.90
64062;DHT22;50308;47.438;-1.528;2023-01-06T08:43:28;14.10;91.00
64062;DHT22;50308;47.438;-1.528;2023-01-06T08:45:58;14.10;90.90
64062;DHT22;50308;47.438;-1.528;2023-01-06T08:48:23;14.10;91.00
64062;DHT22;50308;47.438;-1.528;2023-01-06T08:50:49;14.10;90.90
64062;DHT22;50308;47.438;-1.528;2023-01-06T08:53:14;14.10;90.90
64062;DHT22;50308;47.438;-1.528;2023-01-06T08:55:40;14.10;90.90
64062;DHT22;50308;47.438;-1.528;2023-01-06T08:58:07;14.10;90.90
64062;DHT22;50308;47.438;-1.528;2023-01-06T09:00:33;14.10;90.90
64062;DHT22;50308;47.438;-1.528;2023-01-06T09:02:58;14.10;90.90
64062;DHT22;50308;47.438;-1.528;2023-01-06T09:05:24;14.10;90.90
64062;DHT22;50308;47.438;-1.528;2023-01-06T09:07:49;14.10;90.90
64062;DHT22;50308;47.438;-1.528;2023-01-06T09:10:16;14.20;90.90
64062;DHT22;50308;47.438;-1.528;2023-01-06T09:12:42;14.10;90.90
64062;DHT22;50308;47.438;-1.528;2023-01-06T09:15:08;14.20;90.90
64062;DHT22;50308;47.438;-1.528;2023-01-06T09:17:33;14.20;90.90
64062;DHT22;50308;47.438;-1.528;2023-01-06T09:19:59;14.20;90.90
64062;DHT22;50308;47.438;-1.528;2023-01-06T09:22:24;14.20;91.00
64062;DHT22;50308;47.438;-1.528;2023-01-06T09:24:50;14.10;91.00
64062;DHT22;50308;47.438;-1.528;2023-01-06T09:27:16;14.10;91.00
64062;DHT22;50308;47.438;-1.528;2023-01-06T09:29:41;14.10;91.00
64062;DHT22;50308;47.438;-1.528;2023-01-06T09:32:07;14.20;91.00
64062;DHT22;50308;47.438;-1.528;2023-01-06T09:34:33;14.10;91.00
64062;DHT22;50308;47.438;-1.528;2023-01-06T09:36:58;14.10;91.00
64062;DHT22;50308;47.438;-1.528;2023-01-06T09:39:24;14.10;91.00
64062;DHT22;50308;47.438;-1.528;2023-01-06T09:44:24;14.10;91.00
64062;DHT22;50308;47.438;-1.528;2023-01-06T09:46:52;14.10;91.00
64062;DHT22;50308;47.438;-1.528;2023-01-06T09:52:04;14.10;91.00
64062;DHT22;50308;47.438;-1.528;2023-01-06T09:54:35;14.20;91.00
64062;DHT22;50308;47.438;-1.528;2023-01-06T09:57:06;14.20;91.10
64062;DHT22;50308;47.438;-1.528;2023-01-06T10:02:00;14.20;91.00
64062;DHT22;50308;47.438;-1.528;2023-01-06T10:04:28;14.20;91.10
64062;DHT22;50308;47.438;-1.528;2023-01-06T10:12:13;14.30;91.00
64062;DHT22;50308;47.438;-1.528;2023-01-06T10:27:39;14.30;91.20
64062;DHT22;50308;47.438;-1.528;2023-01-06T10:30:15;14.30;91.30
64062;DHT22;50308;47.438;-1.528;2023-01-06T10:32:42;14.30;91.30
64062;DHT22;50308;47.438;-1.528;2023-01-06T10:35:12;14.30;91.20
64062;DHT22;50308;47.438;-1.528;2023-01-06T10:37:39;14.30;91.20
64062;DHT22;50308;47.438;-1.528;2023-01-06T10:40:39;14.30;91.20
64062;DHT22;50308;47.438;-1.528;2023-01-06T10:43:02;14.30;91.20
64062;DHT22;50308;47.438;-1.528;2023-01-06T10:45:36;14.30;91.20
64062;DHT22;50308;47.438;-1.528;2023-01-06T10:48:03;14.30;91.20
64062;DHT22;50308;47.438;-1.528;2023-01-06T10:50:30;14.30;91.20
64062;DHT22;50308;47.438;-1.528;2023-01-06T10:52:57;14.30;91.20
64062;DHT22;50308;47.438;-1.528;2023-01-06T10:57:59;14.30;91.20
64062;DHT22;50308;47.438;-1.528;2023-01-06T11:00:26;14.30;91.10
64062;DHT22;50308;47.438;-1.528;2023-01-06T11:03:01;14.30;91.20
64062;DHT22;50308;47.438;-1.528;2023-01-06T11:05:29;14.30;91.20
64062;DHT22;50308;47.438;-1.528;2023-01-06T11:07:56;14.30;91.10
64062;DHT22;50308;47.438;-1.528;2023-01-06T11:10:27;14.30;91.20
64062;DHT22;50308;47.438;-1.528;2023-01-06T11:12:53;14.30;91.30
64062;DHT22;50308;47.438;-1.528;2023-01-06T11:15:20;14.30;91.30
64062;DHT22;50308;47.438;-1.528;2023-01-06T11:17:47;14.30;91.30
64062;DHT22;50308;47.438;-1.528;2023-01-06T11:22:39;14.30;91.20
64062;DHT22;50308;47.438;-1.528;2023-01-06T11:27:46;14.40;91.40
64062;DHT22;50308;47.438;-1.528;2023-01-06T11:30:19;14.40;91.30
64062;DHT22;50308;47.438;-1.528;2023-01-06T11:32:44;14.40;91.30
64062;DHT22;50308;47.438;-1.528;2023-01-06T11:35:15;14.40;91.50
64062;DHT22;50308;47.438;-1.528;2023-01-06T11:37:43;14.40;91.40
64062;DHT22;50308;47.438;-1.528;2023-01-06T11:40:28;14.40;91.20
64062;DHT22;50308;47.438;-1.528;2023-01-06T11:42:58;14.40;91.20
64062;DHT22;50308;47.438;-1.528;2023-01-06T11:45:34;14.40;91.10
64062;DHT22;50308;47.438;-1.528;2023-01-06T11:48:10;14.40;91.30
64062;DHT22;50308;47.438;-1.528;2023-01-06T11:50:36;14.40;91.30
64062;DHT22;50308;47.438;-1.528;2023-01-06T11:53:03;14.40;91.30
64062;DHT22;50308;47.438;-1.528;2023-01-06T11:55:29;14.40;90.80
64062;DHT22;50308;47.438;-1.528;2023-01-06T11:58:08;14.40;90.90
64062;DHT22;50308;47.438;-1.528;2023-01-06T12:08:25;14.40;91.70
64062;DHT22;50308;47.438;-1.528;2023-01-06T12:11:02;14.40;91.10
64062;DHT22;50308;47.438;-1.528;2023-01-06T12:13:29;14.40;91.00
64062;DHT22;50308;47.438;-1.528;2023-01-06T12:16:00;14.40;91.20
64062;DHT22;50308;47.438;-1.528;2023-01-06T12:18:27;14.40;91.00
64062;DHT22;50308;47.438;-1.528;2023-01-06T12:20:54;14.40;91.10
64062;DHT22;50308;47.438;-1.528;2023-01-06T12:25:49;14.40;91.00
64062;DHT22;50308;47.438;-1.528;2023-01-06T12:36:32;14.40;91.50
64062;DHT22;50308;47.438;-1.528;2023-01-06T12:39:04;14.50;91.20
64062;DHT22;50308;47.438;-1.528;2023-01-06T12:41:40;14.50;91.00
64062;DHT22;50308;47.438;-1.528;2023-01-06T12:49:33;14.50;91.40
64062;DHT22;50308;47.438;-1.528;2023-01-06T12:52:02;14.50;90.50
64062;DHT22;50308;47.438;-1.528;2023-01-06T12:54:29;14.50;91.40
64062;DHT22;50308;47.438;-1.528;2023-01-06T13:02:31;14.50;90.70
64062;DHT22;50308;47.438;-1.528;2023-01-06T13:07:46;14.50;90.70
64062;DHT22;50308;47.438;-1.528;2023-01-06T13:10:25;14.50;90.60
64062;DHT22;50308;47.438;-1.528;2023-01-06T13:15:26;14.50;90.90
64062;DHT22;50308;47.438;-1.528;2023-01-06T13:18:13;14.50;90.60
64062;DHT22;50308;47.438;-1.528;2023-01-06T13:20:43;14.50;91.00
64062;DHT22;50308;47.438;-1.528;2023-01-06T13:23:28;14.50;91.00
64062;DHT22;50308;47.438;-1.528;2023-01-06T13:26:04;14.50;91.50
64062;DHT22;50308;47.438;-1.528;2023-01-06T13:39:03;14.50;90.50
64062;DHT22;50308;47.438;-1.528;2023-01-06T13:41:31;14.50;91.00
64062;DHT22;50308;47.438;-1.528;2023-01-06T13:43:57;14.50;90.50
64062;DHT22;50308;47.438;-1.528;2023-01-06T13:46:25;14.50;90.90
64062;DHT22;50308;47.438;-1.528;2023-01-06T13:48:52;14.50;90.40
64062;DHT22;50308;47.438;-1.528;2023-01-06T13:51:19;14.50;90.90
64062;DHT22;50308;47.438;-1.528;2023-01-06T13:53:45;14.60;90.90
64062;DHT22;50308;47.438;-1.528;2023-01-06T13:58:37;14.50;90.90
64062;DHT22;50308;47.438;-1.528;2023-01-06T14:03:31;14.50;90.60
64062;DHT22;50308;47.438;-1.528;2023-01-06T14:05:58;14.50;90.60
64062;DHT22;50308;47.438;-1.528;2023-01-06T14:08:25;14.50;90.90
64062;DHT22;50308;47.438;-1.528;2023-01-06T14:10:57;14.50;91.30
64062;DHT22;50308;47.438;-1.528;2023-01-06T14:13:29;14.50;91.20
64062;DHT22;50308;47.438;-1.528;2023-01-06T14:18:28;14.50;91.10
64062;DHT22;50308;47.438;-1.528;2023-01-06T14:20:58;14.50;90.60
64062;DHT22;50308;47.438;-1.528;2023-01-06T14:23:24;14.50;90.90
64062;DHT22;50308;47.438;-1.528;2023-01-06T14:25:51;14.50;90.50
64062;DHT22;50308;47.438;-1.528;2023-01-06T14:28:22;14.50;91.00
64062;DHT22;50308;47.438;-1.528;2023-01-06T14:30:48;14.50;90.70
64062;DHT22;50308;47.438;-1.528;2023-01-06T14:35:49;14.50;91.20
64062;DHT22;50308;47.438;-1.528;2023-01-06T14:40:46;14.50;90.70
64062;DHT22;50308;47.438;-1.528;2023-01-06T14:43:33;14.50;91.00
64062;DHT22;50308;47.438;-1.528;2023-01-06T14:46:06;14.60;91.40
64062;DHT22;50308;47.438;-1.528;2023-01-06T14:48:35;14.50;90.60
64062;DHT22;50308;47.438;-1.528;2023-01-06T14:51:02;14.50;91.00
64062;DHT22;50308;47.438;-1.528;2023-01-06T14:53:32;14.50;90.90
64062;DHT22;50308;47.438;-1.528;2023-01-06T14:55:59;14.50;91.00
64062;DHT22;50308;47.438;-1.528;2023-01-06T14:58:29;14.50;91.30
64062;DHT22;50308;47.438;-1.528;2023-01-06T15:00:55;14.50;91.10
64062;DHT22;50308;47.438;-1.528;2023-01-06T15:03:21;14.50;91.20
64062;DHT22;50308;47.438;-1.528;2023-01-06T15:05:47;14.50;91.30
64062;DHT22;50308;47.438;-1.528;2023-01-06T15:08:16;14.50;91.40
64062;DHT22;50308;47.438;-1.528;2023-01-06T15:10:44;14.50;91.40
64062;DHT22;50308;47.438;-1.528;2023-01-06T15:13:29;14.50;91.10
64062;DHT22;50308;47.438;-1.528;2023-01-06T15:15:57;14.50;91.30
64062;DHT22;50308;47.438;-1.528;2023-01-06T15:18:25;14.50;91.20
64062;DHT22;50308;47.438;-1.528;2023-01-06T15:20:50;14.50;91.30
64062;DHT22;50308;47.438;-1.528;2023-01-06T15:23:16;14.50;91.20
64062;DHT22;50308;47.438;-1.528;2023-01-06T15:25:44;14.50;91.30
64062;DHT22;50308;47.438;-1.528;2023-01-06T15:28:24;14.50;91.30
64062;DHT22;50308;47.438;-1.528;2023-01-06T15:30:50;14.50;91.10
64062;DHT22;50308;47.438;-1.528;2023-01-06T15:33:16;14.50;91.30
64062;DHT22;50308;47.438;-1.528;2023-01-06T15:35:42;14.50;91.40
64062;DHT22;50308;47.438;-1.528;2023-01-06T15:38:19;14.50;91.50
64062;DHT22;50308;47.438;-1.528;2023-01-06T15:40:49;14.50;91.30
64062;DHT22;50308;47.438;-1.528;2023-01-06T15:43:15;14.50;91.30
64062;DHT22;50308;47.438;-1.528;2023-01-06T15:45:41;14.50;91.40
64062;DHT22;50308;47.438;-1.528;2023-01-06T15:48:08;14.50;91.30
64062;DHT22;50308;47.438;-1.528;2023-01-06T15:50:34;14.50;91.40
64062;DHT22;50308;47.438;-1.528;2023-01-06T15:53:01;14.50;91.20
64062;DHT22;50308;47.438;-1.528;2023-01-06T15:55:36;14.50;91.40
64062;DHT22;50308;47.438;-1.528;2023-01-06T15:58:21;14.50;91.20
64062;DHT22;50308;47.438;-1.528;2023-01-06T16:00:56;14.50;91.30
64062;DHT22;50308;47.438;-1.528;2023-01-06T16:03:22;14.50;91.40
64062;DHT22;50308;47.438;-1.528;2023-01-06T16:05:49;14.50;91.30
64062;DHT22;50308;47.438;-1.528;2023-01-06T16:08:21;14.50;91.20
64062;DHT22;50308;47.438;-1.528;2023-01-06T16:10:47;14.50;91.30
64062;DHT22;50308;47.438;-1.528;2023-01-06T16:15:53;14.50;91.20
64062;DHT22;50308;47.438;-1.528;2023-01-06T16:18:29;14.50;91.20
64062;DHT22;50308;47.438;-1.528;2023-01-06T16:20:55;14.50;91.20
64062;DHT22;50308;47.438;-1.528;2023-01-06T16:23:23;14.50;91.20
64062;DHT22;50308;47.438;-1.528;2023-01-06T16:25:53;14.50;91.30
64062;DHT22;50308;47.438;-1.528;2023-01-06T16:28:26;14.50;91.20
64062;DHT22;50308;47.438;-1.528;2023-01-06T16:31:05;14.50;91.20
64062;DHT22;50308;47.438;-1.528;2023-01-06T16:36:23;14.50;91.10
64062;DHT22;50308;47.438;-1.528;2023-01-06T16:38:49;14.40;91.20
64062;DHT22;50308;47.438;-1.528;2023-01-06T16:41:17;14.50;91.20
64062;DHT22;50308;47.438;-1.528;2023-01-06T16:43:43;14.50;91.20
64062;DHT22;50308;47.438;-1.528;2023-01-06T16:46:17;14.50;91.30
64062;DHT22;50308;47.438;-1.528;2023-01-06T16:48:43;14.50;91.10
64062;DHT22;50308;47.438;-1.528;2023-01-06T16:51:13;14.50;91.20
64062;DHT22;50308;47.438;-1.528;2023-01-06T16:53:39;14.50;91.20
64062;DHT22;50308;47.438;-1.528;2023-01-06T16:56:05;14.50;91.20
64062;DHT22;50308;47.438;-1.528;2023-01-06T16:58:31;14.50;91.20
64062;DHT22;50308;47.438;-1.528;2023-01-06T17:00:59;14.50;91.20
64062;DHT22;50308;47.438;-1.528;2023-01-06T17:03:29;14.50;91.20
64062;DHT22;50308;47.438;-1.528;2023-01-06T17:05:55;14.50;91.20
64062;DHT22;50308;47.438;-1.528;2023-01-06T17:08:25;14.50;91.60
64062;DHT22;50308;47.438;-1.528;2023-01-06T17:10:51;14.50;91.10
64062;DHT22;50308;47.438;-1.528;2023-01-06T17:13:17;14.50;91.20
64062;DHT22;50308;47.438;-1.528;2023-01-06T17:18:34;14.50;91.20
64062;DHT22;50308;47.438;-1.528;2023-01-06T17:21:10;14.50;91.20
64062;DHT22;50308;47.438;-1.528;2023-01-06T17:24:05;14.50;91.10
64062;DHT22;50308;47.438;-1.528;2023-01-06T17:26:22;14.50;91.10
64062;DHT22;50308;47.438;-1.528;2023-01-06T17:28:49;14.50;91.10
64062;DHT22;50308;47.438;-1.528;2023-01-06T17:31:26;14.40;91.10
64062;DHT22;50308;47.438;-1.528;2023-01-06T17:33:53;14.40;91.10
64062;DHT22;50308;47.438;-1.528;2023-01-06T17:36:23;14.40;91.10
64062;DHT22;50308;47.438;-1.528;2023-01-06T17:38:49;14.50;91.10
64062;DHT22;50308;47.438;-1.528;2023-01-06T17:41:16;14.50;91.10
64062;DHT22;50308;47.438;-1.528;2023-01-06T17:43:42;14.50;91.10
64062;DHT22;50308;47.438;-1.528;2023-01-06T17:46:15;14.40;91.10